createdAt,value
2022-12-05T00:01:26.352Z,1.70
2022-12-05T00:03:56.781Z,1.70
2022-12-05T00:06:25.081Z,1.70
2022-12-05T00:08:52.725Z,1.70
2022-12-05T00:11:22.261Z,1.80
2022-12-05T00:13:50.225Z,1.70
2022-12-05T00:16:19.495Z,1.80
2022-12-05T00:18:47.205Z,1.90
2022-12-05T00:21:17.275Z,1.80
2022-12-05T00:23:44.099Z,1.80
2022-12-05T00:26:11.704Z,1.70
2022-12-05T00:28:39.337Z,1.70
2022-12-05T00:31:16.554Z,1.70
2022-12-05T00:33:44.584Z,1.80
2022-12-05T00:36:15.226Z,1.70
2022-12-05T00:38:42.819Z,1.80
2022-12-05T00:41:14.401Z,1.80
2022-12-05T00:43:41.872Z,1.90
2022-12-05T00:46:11.901Z,1.90
2022-12-05T00:48:38.905Z,1.90
2022-12-05T00:51:20.089Z,1.90
2022-12-05T00:53:47.825Z,1.90
2022-12-05T00:56:21.098Z,1.80
2022-12-05T00:58:48.450Z,1.80
2022-12-05T01:01:20.070Z,1.80
2022-12-05T01:03:48.255Z,1.70
2022-12-05T01:06:16.410Z,1.80
2022-12-05T01:08:43.518Z,1.80
2022-12-05T01:11:14.023Z,1.80
2022-12-05T01:13:40.989Z,1.70
2022-12-05T01:16:17.202Z,1.80
2022-12-05T01:18:44.307Z,1.70
2022-12-05T01:21:11.360Z,1.80
2022-12-05T01:23:38.295Z,1.80
2022-12-05T01:26:08.342Z,1.80
2022-12-05T01:28:36.060Z,1.70
2022-12-05T01:31:08.380Z,1.60
2022-12-05T01:33:35.743Z,1.70
2022-12-05T01:36:03.794Z,1.80
2022-12-05T01:38:30.653Z,1.70
2022-12-05T01:41:03.196Z,1.70
2022-12-05T01:43:30.061Z,1.70
2022-12-05T01:45:57.285Z,1.70
2022-12-05T01:48:36.004Z,1.70
2022-12-05T01:51:03.109Z,1.80
2022-12-05T01:53:30.570Z,1.80
2022-12-05T01:55:57.595Z,1.80
2022-12-05T01:58:31.374Z,1.80
2022-12-05T02:00:58.323Z,1.80
2022-12-05T02:03:25.166Z,1.90
2022-12-05T02:05:54.952Z,1.90
2022-12-05T02:08:21.820Z,1.70
2022-12-05T02:10:54.487Z,1.70
2022-12-05T02:13:58.331Z,1.60
2022-12-05T02:16:27.900Z,1.70
2022-12-05T02:19:13.416Z,1.70
2022-12-05T02:22:17.294Z,1.60
2022-12-05T02:25:25.297Z,1.60
2022-12-05T02:28:16.326Z,1.70
2022-12-05T02:31:01.154Z,1.70
2022-12-05T02:33:39.352Z,1.50
2022-12-05T02:36:17.196Z,1.50
2022-12-05T02:39:06.778Z,1.60
2022-12-05T02:41:49.809Z,1.60
2022-12-05T02:44:24.696Z,1.50
2022-12-05T02:46:53.499Z,1.50
2022-12-05T02:49:24.601Z,1.60
2022-12-05T02:51:58.690Z,1.70
2022-12-05T02:54:30.181Z,1.70
2022-12-05T02:56:59.183Z,1.80
2022-12-05T02:59:26.065Z,1.80
2022-12-05T03:01:53.299Z,1.70
2022-12-05T03:04:24.418Z,1.90
2022-12-05T03:07:04.944Z,1.80
2022-12-05T03:09:39.689Z,1.70
2022-12-05T03:12:28.489Z,1.70
2022-12-05T03:15:05.585Z,1.50
2022-12-05T03:17:39.421Z,1.60
2022-12-05T03:20:14.209Z,1.70
2022-12-05T03:22:52.662Z,1.70
2022-12-05T03:25:23.646Z,1.80
2022-12-05T03:28:06.073Z,1.70
2022-12-05T03:30:38.259Z,1.60
2022-12-05T03:33:14.186Z,1.60
2022-12-05T03:36:08.311Z,1.70
2022-12-05T03:38:58.045Z,1.70
2022-12-05T03:41:40.913Z,1.80
2022-12-05T03:44:25.755Z,1.80
2022-12-05T03:47:10.740Z,1.70
2022-12-05T03:49:43.457Z,1.70
2022-12-05T03:52:51.022Z,1.80
2022-12-05T03:55:25.198Z,1.80
2022-12-05T03:58:19.169Z,1.80
2022-12-05T04:00:49.324Z,1.70
2022-12-05T04:04:05.020Z,1.50
2022-12-05T04:06:37.483Z,1.50
2022-12-05T04:09:20.537Z,1.40
2022-12-05T04:11:53.303Z,1.50
2022-12-05T04:14:39.337Z,1.60
2022-12-05T04:17:39.805Z,1.50
2022-12-05T04:20:29.173Z,1.40
2022-12-05T04:22:56.341Z,1.40
2022-12-05T04:25:33.090Z,1.30
2022-12-05T04:28:03.045Z,1.30
2022-12-05T04:30:45.065Z,1.30
2022-12-05T04:33:29.817Z,1.30
2022-12-05T04:36:03.332Z,1.30
2022-12-05T04:38:59.601Z,1.40
2022-12-05T04:41:37.029Z,1.30
2022-12-05T04:44:08.503Z,1.30
2022-12-05T04:46:38.527Z,1.40
2022-12-05T04:49:09.118Z,1.30
2022-12-05T04:51:38.473Z,1.30
2022-12-05T04:54:14.663Z,1.30
2022-12-05T04:56:44.003Z,1.40
2022-12-05T04:59:11.323Z,1.40
2022-12-05T05:01:51.428Z,1.40
2022-12-05T05:04:25.078Z,1.30
2022-12-05T05:06:51.897Z,1.10
2022-12-05T05:09:18.711Z,1.40
2022-12-05T05:11:45.638Z,1.50
2022-12-05T05:14:12.419Z,1.40
2022-12-05T05:16:41.412Z,1.40
2022-12-05T05:19:09.067Z,1.40
2022-12-05T05:21:38.943Z,1.70
2022-12-05T05:24:06.875Z,2.00
2022-12-05T05:26:36.725Z,2.00
2022-12-05T05:29:04.509Z,2.10
2022-12-05T05:31:31.627Z,2.00
2022-12-05T05:33:58.876Z,2.10
2022-12-05T05:36:27.546Z,2.10
2022-12-05T05:39:00.932Z,1.90
2022-12-05T05:41:32.488Z,1.70
2022-12-05T05:44:00.141Z,1.60
2022-12-05T05:46:29.738Z,1.60
2022-12-05T05:48:57.094Z,1.50
2022-12-05T05:51:25.805Z,1.40
2022-12-05T05:53:52.604Z,1.40
2022-12-05T05:56:21.943Z,1.50
2022-12-05T05:58:55.003Z,1.40
2022-12-05T06:01:22.091Z,1.30
2022-12-05T06:03:50.906Z,1.30
2022-12-05T06:06:18.320Z,1.40
2022-12-05T06:08:45.966Z,1.30
2022-12-05T06:11:24.867Z,1.30
2022-12-05T06:13:54.550Z,1.30
2022-12-05T06:16:21.647Z,1.30
2022-12-05T06:18:49.948Z,1.40
2022-12-05T06:21:17.255Z,1.30
2022-12-05T06:23:44.336Z,1.30
2022-12-05T06:26:14.036Z,1.40
2022-12-05T06:28:41.466Z,1.40
2022-12-05T06:31:14.423Z,1.30
2022-12-05T06:33:41.476Z,1.40
2022-12-05T06:36:11.472Z,1.40
2022-12-05T06:38:42.081Z,1.40
2022-12-05T06:41:14.164Z,1.40
2022-12-05T06:43:41.353Z,1.50
2022-12-05T06:46:09.524Z,1.40
2022-12-05T06:48:36.436Z,1.40
2022-12-05T06:51:03.935Z,1.40
2022-12-05T06:53:30.729Z,1.40
2022-12-05T06:55:59.489Z,1.40
2022-12-05T06:58:26.719Z,1.40
2022-12-05T07:01:12.402Z,1.50
2022-12-05T07:03:39.374Z,1.50
2022-12-05T07:06:07.554Z,1.50
2022-12-05T07:08:34.970Z,1.50
2022-12-05T07:11:02.757Z,1.90
2022-12-05T07:13:29.973Z,2.10
2022-12-05T07:15:58.528Z,2.00
2022-12-05T07:18:26.247Z,2.00
2022-12-05T07:21:11.651Z,1.90
2022-12-05T07:23:40.402Z,1.70
2022-12-05T07:26:09.586Z,1.60
2022-12-05T07:28:36.796Z,1.80
2022-12-05T07:31:09.712Z,1.80
2022-12-05T07:33:37.446Z,1.70
2022-12-05T07:36:11.012Z,1.60
2022-12-05T07:38:38.106Z,1.50
2022-12-05T07:41:13.519Z,1.50
2022-12-05T07:43:42.156Z,1.50
2022-12-05T07:46:11.470Z,1.50
2022-12-05T07:48:39.344Z,1.50
2022-12-05T07:51:07.594Z,1.50
2022-12-05T07:53:34.635Z,1.60
2022-12-05T07:56:03.760Z,1.80
2022-12-05T07:58:31.609Z,2.10
2022-12-05T08:01:11.144Z,2.20
2022-12-05T08:03:38.419Z,2.20
2022-12-05T08:06:07.440Z,2.10
2022-12-05T08:08:34.637Z,2.20
2022-12-05T08:11:06.583Z,2.20
2022-12-05T08:13:34.126Z,2.10
2022-12-05T08:16:06.139Z,2.10
2022-12-05T08:18:33.072Z,2.00
2022-12-05T08:21:08.120Z,1.90
2022-12-05T08:23:36.125Z,2.00
2022-12-05T08:26:11.650Z,2.00
2022-12-05T08:28:38.934Z,1.80
2022-12-05T08:31:10.080Z,1.70
2022-12-05T08:33:37.464Z,1.70
2022-12-05T08:36:07.652Z,1.70
2022-12-05T08:38:35.274Z,1.60
2022-12-05T08:41:03.153Z,1.70
2022-12-05T08:43:31.213Z,1.70
2022-12-05T08:45:58.241Z,1.60
2022-12-05T08:48:29.433Z,1.60
2022-12-05T08:50:57.332Z,1.60
2022-12-05T08:53:24.342Z,1.60
2022-12-05T08:55:51.187Z,1.60
2022-12-05T08:58:18.092Z,1.60
2022-12-05T09:00:44.839Z,1.60
2022-12-05T09:03:12.736Z,1.70
2022-12-05T09:05:39.800Z,1.70
2022-12-05T09:08:06.810Z,1.70
2022-12-05T09:10:34.016Z,1.70
2022-12-05T09:13:00.828Z,1.90
2022-12-05T09:15:27.838Z,1.80
2022-12-05T09:17:54.698Z,1.80
2022-12-05T09:20:22.354Z,1.70
2022-12-05T09:22:49.169Z,1.70
2022-12-05T09:25:16.039Z,1.70
2022-12-05T09:27:42.942Z,1.70
2022-12-05T09:30:10.321Z,1.80
2022-12-05T09:32:37.548Z,1.80
2022-12-05T09:35:04.599Z,1.80
2022-12-05T09:37:39.265Z,1.80
2022-12-05T09:40:07.927Z,1.90
2022-12-05T09:43:06.014Z,2.00
2022-12-05T09:45:40.037Z,2.10
2022-12-05T09:48:15.586Z,2.10
2022-12-05T09:50:46.087Z,2.20
2022-12-05T09:53:18.765Z,2.50
2022-12-05T09:56:04.938Z,2.40
2022-12-05T09:58:34.888Z,2.40
2022-12-05T10:01:21.388Z,2.20
2022-12-05T10:04:19.393Z,2.10
2022-12-05T10:07:01.240Z,2.00
2022-12-05T10:09:39.860Z,2.10
2022-12-05T10:12:43.396Z,2.30
2022-12-05T10:15:19.698Z,2.10
2022-12-05T10:18:26.883Z,2.10
2022-12-05T10:21:24.041Z,2.10
2022-12-05T10:24:05.896Z,2.00
2022-12-05T10:26:49.533Z,2.00
2022-12-05T10:29:28.598Z,2.00
2022-12-05T10:32:11.148Z,2.00
2022-12-05T10:34:43.398Z,2.00
2022-12-05T10:37:21.936Z,2.00
2022-12-05T10:39:50.345Z,2.00
2022-12-05T10:42:25.401Z,2.00
2022-12-05T10:45:02.955Z,2.00
2022-12-05T10:47:31.173Z,2.10
2022-12-05T10:50:03.859Z,2.10
2022-12-05T10:52:31.125Z,2.10
2022-12-05T10:55:02.903Z,2.10
2022-12-05T10:57:30.409Z,2.10
2022-12-05T10:59:58.006Z,2.10
2022-12-05T11:02:31.352Z,2.10
2022-12-05T11:04:59.620Z,2.10
2022-12-05T11:07:31.004Z,2.10
2022-12-05T11:10:00.381Z,2.10
2022-12-05T11:12:36.241Z,2.20
2022-12-05T11:15:05.600Z,2.20
2022-12-05T11:17:38.947Z,2.30
2022-12-05T11:20:20.741Z,2.30
2022-12-05T11:22:50.341Z,2.30
2022-12-05T11:25:30.565Z,2.20
2022-12-05T11:28:01.627Z,2.20
2022-12-05T11:30:29.630Z,2.20
2022-12-05T11:33:20.106Z,2.10
2022-12-05T11:35:53.108Z,2.20
2022-12-05T11:38:22.574Z,2.30
2022-12-05T11:41:02.504Z,2.30
2022-12-05T11:43:57.153Z,2.40
2022-12-05T11:46:51.894Z,2.50
2022-12-05T11:49:47.909Z,2.50
2022-12-05T11:52:57.895Z,2.40
2022-12-05T11:55:30.495Z,2.30
2022-12-05T11:58:38.090Z,2.30
2022-12-05T12:01:36.123Z,2.30
2022-12-05T12:04:37.397Z,2.30
2022-12-05T12:07:07.004Z,2.30
2022-12-05T12:10:00.243Z,2.30
2022-12-05T12:12:48.523Z,2.30
2022-12-05T12:15:49.465Z,2.30
2022-12-05T12:18:26.157Z,2.30
2022-12-05T12:21:27.119Z,2.30
2022-12-05T12:24:03.033Z,2.30
2022-12-05T12:26:48.356Z,2.30
2022-12-05T12:29:18.092Z,2.40
2022-12-05T12:32:06.185Z,2.40
2022-12-05T12:35:00.525Z,2.40
2022-12-05T12:37:41.270Z,2.30
2022-12-05T12:40:16.932Z,2.30
2022-12-05T12:43:07.464Z,2.40
2022-12-05T12:45:58.659Z,2.40
2022-12-05T12:48:50.571Z,2.40
2022-12-05T12:51:17.993Z,2.40
2022-12-05T12:53:57.266Z,2.60
2022-12-05T12:56:27.120Z,2.40
2022-12-05T12:59:17.230Z,2.40
2022-12-05T13:02:00.282Z,2.50
2022-12-05T13:04:42.003Z,2.40
2022-12-05T13:07:26.475Z,2.50
2022-12-05T13:10:00.313Z,2.40
2022-12-05T13:12:38.065Z,2.40
2022-12-05T13:15:13.907Z,2.50
2022-12-05T13:17:43.284Z,2.60
2022-12-05T13:20:25.310Z,2.60
2022-12-05T13:22:53.045Z,2.60
2022-12-05T13:25:24.501Z,2.60
2022-12-05T13:27:57.698Z,2.50
2022-12-05T13:30:28.426Z,2.50
2022-12-05T13:33:03.851Z,2.50
2022-12-05T13:35:55.033Z,2.50
2022-12-05T13:38:46.311Z,2.60
2022-12-05T13:41:32.120Z,2.60
2022-12-05T13:44:06.349Z,2.60
2022-12-05T13:46:37.027Z,2.50
2022-12-05T13:49:17.383Z,2.60
2022-12-05T13:51:45.811Z,2.50
2022-12-05T13:54:21.685Z,2.50
2022-12-05T13:56:52.324Z,2.50
2022-12-05T13:59:56.868Z,2.60
2022-12-05T14:02:51.850Z,2.60
2022-12-05T14:05:21.651Z,2.70
2022-12-05T14:08:03.401Z,2.70
2022-12-05T14:10:36.978Z,2.60
2022-12-05T14:13:23.769Z,2.60
2022-12-05T14:15:52.325Z,2.60
2022-12-05T14:18:38.885Z,2.60
2022-12-05T14:21:33.327Z,2.60
2022-12-05T14:24:15.136Z,2.60
2022-12-05T14:27:07.523Z,2.60
2022-12-05T14:30:01.103Z,2.70
2022-12-05T14:32:32.413Z,2.60
2022-12-05T14:35:20.871Z,2.60
2022-12-05T14:38:01.394Z,2.70
2022-12-05T14:40:42.216Z,2.60
2022-12-05T14:43:22.223Z,2.60
2022-12-05T14:45:52.067Z,2.70
2022-12-05T14:48:47.824Z,2.70
2022-12-05T14:51:33.121Z,2.70
2022-12-05T14:54:16.973Z,2.70
2022-12-05T14:56:49.612Z,2.70
2022-12-05T14:59:31.427Z,2.90
2022-12-05T15:02:01.145Z,2.70
2022-12-05T15:04:51.027Z,2.80
2022-12-05T15:07:21.462Z,2.70
2022-12-05T15:10:02.432Z,2.70
2022-12-05T15:12:33.829Z,2.70
2022-12-05T15:15:31.736Z,2.70
2022-12-05T15:18:05.602Z,2.70
2022-12-05T15:20:58.335Z,2.60
2022-12-05T15:23:49.344Z,2.60
2022-12-05T15:26:46.128Z,2.60
2022-12-05T15:29:23.259Z,2.60
2022-12-05T15:31:54.592Z,2.60
2022-12-05T15:34:38.256Z,2.60
2022-12-05T15:37:14.123Z,2.60
2022-12-05T15:40:00.766Z,2.60
2022-12-05T15:42:36.251Z,2.60
2022-12-05T15:45:15.225Z,2.60
2022-12-05T15:47:54.388Z,2.60
2022-12-05T15:50:33.235Z,2.60
2022-12-05T15:53:15.621Z,2.60
2022-12-05T15:55:51.209Z,2.60
2022-12-05T15:58:26.184Z,2.60
2022-12-05T16:01:06.566Z,2.60
2022-12-05T16:03:58.204Z,2.60
2022-12-05T16:06:24.968Z,2.50
2022-12-05T16:08:52.207Z,2.60
2022-12-05T16:11:19.270Z,2.60
2022-12-05T16:13:54.103Z,2.50
2022-12-05T16:16:25.035Z,2.60
2022-12-05T16:19:04.532Z,2.60
2022-12-05T16:21:46.461Z,2.60
2022-12-05T16:24:29.809Z,2.60
2022-12-05T16:26:59.670Z,2.60
2022-12-05T16:29:29.008Z,2.60
2022-12-05T16:32:02.285Z,2.60
2022-12-05T16:34:32.415Z,2.60
2022-12-05T16:36:59.560Z,2.60
2022-12-05T16:39:31.115Z,2.70
2022-12-05T16:41:57.991Z,2.80
2022-12-05T16:44:28.397Z,3.20
2022-12-05T16:46:56.638Z,2.90
2022-12-05T16:49:34.897Z,2.90
2022-12-05T16:52:07.514Z,2.60
2022-12-05T16:54:34.673Z,2.60
2022-12-05T16:57:02.727Z,2.60
2022-12-05T16:59:41.421Z,2.60
2022-12-05T17:02:14.784Z,2.60
2022-12-05T17:04:41.858Z,2.50
2022-12-05T17:07:09.192Z,2.50
2022-12-05T17:09:36.125Z,2.50
2022-12-05T17:12:11.605Z,2.50
2022-12-05T17:14:38.454Z,2.50
2022-12-05T17:17:13.567Z,2.40
2022-12-05T17:19:40.375Z,2.40
2022-12-05T17:22:07.291Z,2.40
2022-12-05T17:24:34.119Z,2.50
2022-12-05T17:27:01.138Z,2.50
2022-12-05T17:29:32.425Z,2.40
2022-12-05T17:32:02.297Z,2.40
2022-12-05T17:34:29.863Z,2.40
2022-12-05T17:36:56.623Z,2.40
2022-12-05T17:39:28.279Z,2.50
2022-12-05T17:41:55.615Z,2.50
2022-12-05T17:44:22.554Z,2.50
2022-12-05T17:46:49.471Z,2.50
2022-12-05T17:49:18.299Z,2.50
2022-12-05T17:52:13.344Z,2.50
2022-12-05T17:54:32.624Z,2.50
2022-12-05T17:56:59.479Z,2.50
2022-12-05T17:59:26.276Z,2.50
2022-12-05T18:01:53.072Z,2.50
2022-12-05T18:04:23.095Z,2.50
2022-12-05T18:06:50.707Z,2.50
2022-12-05T18:09:17.742Z,2.50
2022-12-05T18:11:44.635Z,2.50
2022-12-05T18:14:11.549Z,2.50
2022-12-05T18:16:38.453Z,2.50
2022-12-05T18:19:05.389Z,2.50
2022-12-05T18:21:32.212Z,2.40
2022-12-05T18:23:59.961Z,2.40
2022-12-05T18:26:26.881Z,2.40
2022-12-05T18:28:56.445Z,2.40
2022-12-05T18:31:23.913Z,2.40
2022-12-05T18:33:51.119Z,2.40
2022-12-05T18:36:20.220Z,2.40
2022-12-05T18:38:51.791Z,2.40
2022-12-05T18:41:18.838Z,2.40
2022-12-05T18:43:45.741Z,2.40
2022-12-05T18:46:12.628Z,2.40
2022-12-05T18:48:44.878Z,2.40
2022-12-05T18:51:21.267Z,2.50
2022-12-05T18:53:53.504Z,2.50
2022-12-05T18:56:24.916Z,2.50
2022-12-05T18:58:54.321Z,2.50
2022-12-05T19:01:21.237Z,2.50
2022-12-05T19:03:49.504Z,2.50
2022-12-05T19:06:19.670Z,2.50
2022-12-05T19:08:47.211Z,2.50
2022-12-05T19:11:16.008Z,2.50
2022-12-05T19:13:43.143Z,2.40
2022-12-05T19:16:16.986Z,2.40
2022-12-05T19:18:44.730Z,2.40
2022-12-05T19:21:11.864Z,2.50
2022-12-05T19:23:39.288Z,2.50
2022-12-05T19:26:08.188Z,2.50
2022-12-05T19:28:36.487Z,2.50
2022-12-05T19:31:16.024Z,2.50
2022-12-05T19:33:45.788Z,2.40
2022-12-05T19:36:31.581Z,2.50
2022-12-05T19:38:58.531Z,2.50
2022-12-05T19:41:28.717Z,2.50
2022-12-05T19:43:59.243Z,2.50
2022-12-05T19:46:29.754Z,2.50
2022-12-05T19:48:58.252Z,2.50
2022-12-05T19:51:25.355Z,2.50
2022-12-05T19:53:52.457Z,2.50
2022-12-05T19:56:22.005Z,2.50
2022-12-05T19:58:50.393Z,2.50
2022-12-05T20:01:19.700Z,2.60
2022-12-05T20:03:55.767Z,2.50
2022-12-05T20:06:23.340Z,2.50
2022-12-05T20:08:52.517Z,2.50
2022-12-05T20:11:28.126Z,2.50
2022-12-05T20:13:58.790Z,2.50
2022-12-05T20:16:27.246Z,2.60
2022-12-05T20:18:58.905Z,2.50
2022-12-05T20:21:28.255Z,2.50
2022-12-05T20:23:56.669Z,2.50
2022-12-05T20:26:49.879Z,2.50
2022-12-05T20:29:16.798Z,2.50
2022-12-05T20:31:43.838Z,2.50
2022-12-05T20:34:13.567Z,2.50
2022-12-05T20:36:40.703Z,2.50
2022-12-05T20:39:16.077Z,2.50
2022-12-05T20:41:43.601Z,2.50
2022-12-05T20:44:14.508Z,2.50
2022-12-05T20:46:41.657Z,2.50
2022-12-05T20:49:08.857Z,2.50
2022-12-05T20:51:35.769Z,2.50
2022-12-05T20:54:05.294Z,2.50
2022-12-05T20:56:33.408Z,2.50
2022-12-05T20:59:02.697Z,2.50
2022-12-05T21:01:32.154Z,2.60
2022-12-05T21:03:59.336Z,2.60
2022-12-05T21:06:29.085Z,2.60
2022-12-05T21:08:56.750Z,2.50
2022-12-05T21:11:24.397Z,2.50
2022-12-05T21:13:52.131Z,2.50
2022-12-05T21:16:21.125Z,2.70
2022-12-05T21:18:48.962Z,2.70
2022-12-05T21:21:21.199Z,2.70
2022-12-05T21:23:56.728Z,2.70
2022-12-05T21:26:24.737Z,2.70
2022-12-05T21:28:51.663Z,2.60
2022-12-05T21:31:25.931Z,2.60
2022-12-05T21:33:55.400Z,2.60
2022-12-05T21:36:23.331Z,2.50
2022-12-05T21:38:55.607Z,2.50
2022-12-05T21:41:23.036Z,2.50
2022-12-05T21:43:54.363Z,2.50
2022-12-05T21:46:22.541Z,2.50
2022-12-05T21:48:49.435Z,2.50
2022-12-05T21:51:16.545Z,2.50
2022-12-05T21:53:43.617Z,2.50
2022-12-05T21:56:15.555Z,2.50
2022-12-05T21:58:44.329Z,2.50
2022-12-05T22:01:17.321Z,2.50
2022-12-05T22:03:44.516Z,2.50
2022-12-05T22:06:12.703Z,2.60
2022-12-05T22:08:39.783Z,2.60
2022-12-05T22:11:13.893Z,2.60
2022-12-05T22:13:41.473Z,2.60
2022-12-05T22:16:08.916Z,2.60
2022-12-05T22:18:36.284Z,2.50
2022-12-05T22:21:15.106Z,2.60
2022-12-05T22:23:42.209Z,2.60
2022-12-05T22:26:17.927Z,2.50
2022-12-05T22:28:45.026Z,2.60
2022-12-05T22:31:16.589Z,2.50
2022-12-05T22:33:45.119Z,2.60
2022-12-05T22:36:14.708Z,2.60
2022-12-05T22:38:44.300Z,2.60
2022-12-05T22:41:16.346Z,2.60
2022-12-05T22:43:44.853Z,2.50
2022-12-05T22:46:14.474Z,2.50
2022-12-05T22:48:41.946Z,2.50
2022-12-05T22:51:09.068Z,2.50
2022-12-05T22:53:37.118Z,2.50
2022-12-05T22:56:11.826Z,2.60
2022-12-05T22:58:39.773Z,2.50
2022-12-05T23:01:20.161Z,2.50
2022-12-05T23:03:49.385Z,2.50
2022-12-05T23:06:17.965Z,2.50
2022-12-05T23:08:47.812Z,2.50
2022-12-05T23:11:16.320Z,2.50
2022-12-05T23:13:43.497Z,2.50
2022-12-05T23:16:16.726Z,2.50
2022-12-05T23:18:46.911Z,2.50
2022-12-05T23:21:25.913Z,2.50
2022-12-05T23:23:54.826Z,2.50
2022-12-05T23:26:25.090Z,2.50
2022-12-05T23:28:52.441Z,2.50
2022-12-05T23:31:20.068Z,2.50
2022-12-05T23:33:51.090Z,2.50
2022-12-05T23:36:19.101Z,2.50
2022-12-05T23:38:45.981Z,2.50
2022-12-05T23:41:15.685Z,2.50
2022-12-05T23:43:43.437Z,2.50
2022-12-05T23:46:11.615Z,2.50
2022-12-05T23:48:38.795Z,2.50
2022-12-05T23:51:09.708Z,2.50
2022-12-05T23:53:38.258Z,2.50
2022-12-05T23:56:08.289Z,2.50
2022-12-05T23:58:35.767Z,2.50
